This is the latest recevied weather packets stored in our database for station/object K4WCH. If no packets are shown the sender has not sent any weather packets the latest 10 day(s).
| Time | Temp. | Humidity | Pressure | Rain* | Wind** | Luminosity | Snow |
|---|---|---|---|---|---|---|---|
| 1788028722 | 25° C | 90% | 1018 hPa | 0 mm | - | 192 W/m² | - |
| 1788028417 | 25° C | 90% | 1018.1 hPa | 0 mm | - | 192 W/m² | - |
| 1788028113 | 24.44° C | 91% | 1018.4 hPa | 0 mm | - | 198 W/m² | - |
| 1788027813 | 24.44° C | 91% | 1018 hPa | 0 mm | - | 198 W/m² | - |
| 1788027513 | 24.44° C | 90% | 1018.3 hPa | 0 mm | - | 187 W/m² | - |
| 1788027208 | 24.44° C | 90% | 1018.2 hPa | 0.51 mm | - | 167 W/m² | - |
| 1788026907 | 23.89° C | 91% | 1018.4 hPa | 4.83 mm | - | 146 W/m² | - |
| 1788026602 | 24.44° C | 89% | 1018.4 hPa | 11.94 mm | - | 128 W/m² | - |
| 1788026302 | 25° C | 88% | 1018.8 hPa | 12.7 mm | - | 110 W/m² | - |
| 1788025998 | 26.11° C | 83% | 1018.6 hPa | 4.83 mm | - | 96 W/m² | - |
| 1788025697 | 31.11° C | 73% | 1018.9 hPa | 0 mm | - | 110 W/m² | - |
| 1788025396 | 31.67° C | 71% | 1018.5 hPa | 0 mm | - | 112 W/m² | - |
| 1788025092 | 32.78° C | 67% | 1018.3 hPa | 0 mm | - | 174 W/m² | - |
| 1788024792 | 33.33° C | 65% | 1018.6 hPa | 0 mm | - | 177 W/m² | - |
| 1788024489 | 33.33° C | 62% | 1018.5 hPa | 0 mm | - | 1210 W/m² | - |
| 1788024187 | 32.78° C | 62% | 1018.4 hPa | 0 mm | - | 1165 W/m² | - |
| 1788023883 | 32.22° C | 68% | 1018.5 hPa | 0 mm | - | 636 W/m² | - |
| 1788023578 | 32.78° C | 64% | 1018.7 hPa | 0 mm | - | 286 W/m² | - |
| 1788023274 | 33.33° C | 64% | 1018.6 hPa | 0 mm | - | 256 W/m² | - |
| 1788022968 | 33.89° C | 60% | 1018.7 hPa | 0 mm | - | 1121 W/m² | - |
| 1788022666 | 33.33° C | 59% | 1018.8 hPa | 0 mm | - | 1068 W/m² | - |
| 1788022365 | 33.89° C | 61% | 1018.8 hPa | 0 mm | - | 1057 W/m² | - |
| 1788022059 | 33.33° C | 62% | 1018.8 hPa | 0 mm | - | 1039 W/m² | - |
| 1788021759 | 32.78° C | 65% | 1018.3 hPa | 0 mm | - | 1016 W/m² | - |
| 1788021458 | 33.33° C | 62% | 1018.5 hPa | 0 mm | - | 1024 W/m² | - |
* Rain latest hour (hover to see other rain measurements)
** Current wind speed in m/s (hover to see current wind gust speed)